PROFILE

 METAR AND TAF INFORMATION
METAR FOR LFMN
ADDS - METARS form results

(2252 UTC 23 April 2018)
Data provider http://aviationweather.gov/adds/metars/
 
METAR text: LFMN 232200Z 08011KT 9999 FEW008 BKN150 17/15 Q1017
Conditions at: LFMN (NICE/COTE D'AZUR, FR) observed 2200 UTC 23 April 2018
Temperature: 17.0°C (63°F)
Dewpoint: 15.0°C (59°F) [RH = 88%]
Pressure (altimeter): 30.03 inches Hg (1017.0 mb)
Winds: from the E (80 degrees) at 13 MPH (11 knots; 5.7 m/s)
Visibility: 6 or more miles (10+ km)
Ceiling: 15000 feet AGL
Clouds: few clouds at 800 feet AGL
broken clouds at 15000 feet AGL
Weather: no significant weather observed at this time

Forecast for: LFMN (NICE/COTE D'AZUR, FR)
Text: TAF LFMN 232000Z 2321/2503 08010KT 9999 FEW009 BKN250
Forecast period: 2100 UTC 23 April 2018 to 0900 UTC 24 April 2018
Forecast type: FROM: standard forecast or significant change
Winds: from the E (80 degrees) at 12 MPH (10 knots; 5.2 m/s)
Visibility: 6 or more miles (10+ km)
Ceiling: 25000 feet AGL
Clouds: few clouds at 900 feet AGL
broken clouds at 25000 feet AGL
Weather: no significant weather forecast for this period
Forecast for: LFMN (NICE/COTE D'AZUR, FR)
Text: TAF LFMN 232000Z 2321/2503 08010KT 9999 FEW009 BKN250
Forecast period: 2100 UTC 23 April 2018 to 0900 UTC 24 April 2018
Forecast type: FROM: standard forecast or significant change
Winds: from the E (80 degrees) at 12 MPH (10 knots; 5.2 m/s)
Visibility: 6 or more miles (10+ km)
Ceiling: 25000 feet AGL
Clouds: few clouds at 900 feet AGL
broken clouds at 25000 feet AGL
Weather: no significant weather forecast for this period
Forecast for: LFMN (NICE/COTE D'AZUR, FR)
Text: TAF LFMN 232000Z 2321/2503 08010KT 9999 FEW009 BKN250
Forecast period: 2300 UTC 23 April 2018 to 0900 UTC 24 April 2018
Forecast type: TEMPORARY: The following changes expected for less than half the time period
Ceiling: 800 feet AGL
Clouds: broken clouds at 800 feet AGL
Weather: no significant weather forecast for this period
Forecast for: LFMN (NICE/COTE D'AZUR, FR)
Text: TAF LFMN 232000Z 2321/2503 08010KT 9999 FEW009 BKN250
Forecast period: 2300 UTC 23 April 2018 to 0900 UTC 24 April 2018
Forecast type: TEMPORARY: The following changes expected for less than half the time period
Ceiling: 800 feet AGL
Clouds: broken clouds at 800 feet AGL
Weather: no significant weather forecast for this period
Forecast for: LFMN (NICE/COTE D'AZUR, FR)
Text: TAF LFMN 232000Z 2321/2503 08010KT 9999 FEW009 BKN250
Forecast period: 0300 to 0700 UTC 24 April 2018
Forecast type: TEMPORARY: The following changes expected for less than half the time period
Visibility: 1.86 miles (2.99 km)
Weather: BR  (mist)
Forecast for: LFMN (NICE/COTE D'AZUR, FR)
Text: TAF LFMN 232000Z 2321/2503 08010KT 9999 FEW009 BKN250
Forecast period: 0300 to 0700 UTC 24 April 2018
Forecast type: TEMPORARY: The following changes expected for less than half the time period
Visibility: 1.86 miles (2.99 km)
Weather: BR  (mist)
Forecast for: LFMN (NICE/COTE D'AZUR, FR)
Text: TAF LFMN 232000Z 2321/2503 08010KT 9999 FEW009 BKN250
Forecast period: 0300 to 0700 UTC 24 April 2018
Forecast type: TEMPORARY: The following changes expected for less than half the time period
Visibility: 0.50 miles (0.80 km)
Weather: FG  (fog)
Forecast for: LFMN (NICE/COTE D'AZUR, FR)
Text: TAF LFMN 232000Z 2321/2503 08010KT 9999 FEW009 BKN250
Forecast period: 0300 to 0700 UTC 24 April 2018
Forecast type: TEMPORARY: The following changes expected for less than half the time period
Visibility: 0.50 miles (0.80 km)
Weather: FG  (fog)
Forecast for: LFMN (NICE/COTE D'AZUR, FR)
Text: TAF LFMN 232000Z 2321/2503 08010KT 9999 FEW009 BKN250
Forecast period: 0900 UTC 24 April 2018 to 0300 UTC 25 April 2018
Forecast type: BECOMING: Conditions expected to become as follows by 1100 UTC 24 April 2018
Winds: from the SE (140 degrees) at 12 MPH (10 knots; 5.2 m/s)
Visibility: 6 or more miles (10+ km)
Ceiling: 25000 feet AGL
Clouds: few clouds at 900 feet AGL
broken clouds at 25000 feet AGL
Weather: no significant weather forecast for this period
Forecast for: LFMN (NICE/COTE D'AZUR, FR)
Text: TAF LFMN 232000Z 2321/2503 08010KT 9999 FEW009 BKN250
Forecast period: 0900 UTC 24 April 2018 to 0300 UTC 25 April 2018
Forecast type: BECOMING: Conditions expected to become as follows by 1100 UTC 24 April 2018
Winds: from the SE (140 degrees) at 12 MPH (10 knots; 5.2 m/s)
Visibility: 6 or more miles (10+ km)
Ceiling: 25000 feet AGL
Clouds: few clouds at 900 feet AGL
broken clouds at 25000 feet AGL
Weather: no significant weather forecast for this period
Forecast for: LFMN (NICE/COTE D'AZUR, FR)
Text: TAF LFMN 232000Z 2321/2503 08010KT 9999 FEW009 BKN250
Forecast period: 2300 UTC 24 April 2018 to 0300 UTC 25 April 2018
Forecast type: TEMPORARY: The following changes expected for less than half the time period
Visibility: 1.86 miles (2.99 km)
Ceiling: 800 feet AGL
Clouds: broken clouds at 800 feet AGL
Weather: BR  (mist)
Forecast for: LFMN (NICE/COTE D'AZUR, FR)
Text: TAF LFMN 232000Z 2321/2503 08010KT 9999 FEW009 BKN250
Forecast period: 2300 UTC 24 April 2018 to 0300 UTC 25 April 2018
Forecast type: TEMPORARY: The following changes expected for less than half the time period
Visibility: 1.86 miles (2.99 km)
Ceiling: 800 feet AGL
Clouds: broken clouds at 800 feet AGL
Weather: BR  (mist)

 AIRPORT MAP

 RUNWAY INFORMATION
Runway 04L Runway length 8995 ft Runway width 148 ft
Runway elevation 10 ft Runway displaced threshold 0 ft Runway heading 45
Runway 22R Runway length 8995 ft Runway width 148 ft
Runway elevation 10 ft Runway displaced threshold 575 ft Runway heading 225
Runway 04R Runway length 9712 ft Runway width 148 ft
Runway elevation 10 ft Runway displaced threshold 0 ft Runway heading 45
Runway 22L Runway length 9712 ft Runway width 148 ft
Runway elevation 12 ft Runway displaced threshold 0 ft Runway heading 225

 AIRPORT FREQUENCIES
Type A/D Name NICE APP Frequency 124.175 MHZ
Type ATIS Name NICE ATIS Frequency 129.6 MHZ
Type GND Name NICE GND Frequency 121.775 MHZ
Type TWR Name NICE TWR Frequency 118.7 MHZ

 AIRPORT NEAR NAVIGATION AIDS
Type VOR-DME Name Nice Cote D Azur Frequency 109650 KHZ
Type VOR-DME Name Cagnes Sur Mer Frequency 109200 KHZ
Type NDB Name Nice Frequency 399 KHZ
Type VOR-DME Name Nice Frequency 112400 KHZ